»·PEaware :: SWA545 KSMF-KBUR

SWA545 :: KSMF-KBUR

FLIGHT INFORMATION

Flight Status: Arrived
Operator:
Southwest Airlines
More flights by this operator :: More flights under this callsign
Pilot: Ryan C. (15122)
Aircraft: BOEING 737-800
(B738)
More flights by this aircraft type
Origin: KSMF Sacramento Intl
United States
Destination: KBUR Bob Hope-Burbank
United States
More flights between these airports :: More routes between these airports
Route: FTHIL2 FRA REBRG ROKKR2
File this flight plan on PilotEdge
Remarks:
Altitude:
(Current/Filed)
31,000ft
Speed:
(Current/Filed)
450kts
Departed: 30-Sep-18 04:57 PM
Arrived: 30-Sep-18 05:56 PM
Distance/Time
Traveled:
312nm/0:59
Distance/Time
To Go:
Arrived

Flight Plot

Page will automatically refresh every two minutes.

Flight plan parsing failed; only flown route is shown


Map Options




Map Legend


Flown Route
Filed Route
Departure Airport
Arrival Airport
Navaid (VOR, NDB)
Fix

Horizontal Profiles

Position Reports

Time Latitude Longitude Heading Altitude Ground
Speed
30-Sep-18 16:36 38.695991 -121.595338 116 27ft 0kts
30-Sep-18 16:37 38.695991 -121.595338 116 27ft 0kts
30-Sep-18 16:38 38.695991 -121.595338 116 27ft 0kts
30-Sep-18 16:39 38.695991 -121.595338 116 27ft 0kts
30-Sep-18 16:40 38.695991 -121.595338 116 27ft 0kts
30-Sep-18 16:41 38.695991 -121.595338 116 27ft 0kts
30-Sep-18 16:42 38.695991 -121.595338 116 27ft 0kts
30-Sep-18 16:43 38.695991 -121.595338 116 27ft 0kts
30-Sep-18 16:44 38.695991 -121.595338 116 27ft 0kts
30-Sep-18 16:45 38.695991 -121.595338 116 27ft 0kts
30-Sep-18 16:46 38.695991 -121.595338 116 27ft 0kts
30-Sep-18 16:47 38.695991 -121.595338 116 27ft 0kts
30-Sep-18 16:48 38.695991 -121.595338 116 27ft 0kts
30-Sep-18 16:49 38.695991 -121.595338 116 27ft 0kts
30-Sep-18 16:50 38.695991 -121.595338 116 27ft 0kts
30-Sep-18 16:51 38.696171 -121.595655 154 27ft 2kts
30-Sep-18 16:52 38.696576 -121.595526 226 27ft 1kts
30-Sep-18 16:53 38.696620 -121.595469 226 27ft 0kts
30-Sep-18 16:54 38.696620 -121.595469 226 27ft 0kts
30-Sep-18 16:55 38.696540 -121.595646 258 27ft 6kts
30-Sep-18 16:56 38.698450 -121.598608 1 27ft 19kts
30-Sep-18 16:57 38.704440 -121.598502 0 27ft 21kts
30-Sep-18 16:58 38.707129 -121.600940 230 27ft 10kts
30-Sep-18 16:59 38.682803 -121.601638 182 685ft 159kts
30-Sep-18 17:00 38.646225 -121.553593 123 2371ft 256kts
30-Sep-18 17:01 38.605459 -121.473639 124 5965ft 280kts
30-Sep-18 17:02 38.562838 -121.390241 124 9533ft 290kts
30-Sep-18 17:03 38.515855 -121.298683 124 12281ft 324kts
30-Sep-18 17:04 38.465549 -121.200816 126 15524ft 339kts
30-Sep-18 17:05 38.413001 -121.098895 127 18569ft 353kts
30-Sep-18 17:06 38.357968 -120.992535 128 21288ft 368kts
30-Sep-18 17:07 38.300368 -120.881658 129 23652ft 385kts
30-Sep-18 17:08 38.239988 -120.765871 130 25748ft 403kts
30-Sep-18 17:09 38.176967 -120.645431 130 27638ft 419kts
30-Sep-18 17:10 38.111374 -120.520479 130 29398ft 434kts
30-Sep-18 17:11 38.043858 -120.392910 132 30908ft 435kts
30-Sep-18 17:12 37.976377 -120.271978 133 30929ft 431kts
30-Sep-18 17:13 37.892677 -120.177079 157 30934ft 408kts
30-Sep-18 17:14 37.797619 -120.106037 157 30919ft 407kts
30-Sep-18 17:15 37.700524 -120.033878 157 30907ft 407kts
30-Sep-18 17:16 37.603022 -119.961619 157 30902ft 406kts
30-Sep-18 17:17 37.500589 -119.886216 156 30917ft 448kts
30-Sep-18 17:18 37.393919 -119.807546 156 30920ft 451kts
30-Sep-18 17:19 37.285817 -119.728113 156 30918ft 451kts
30-Sep-18 17:20 37.177509 -119.648823 156 30910ft 449kts
30-Sep-18 17:21 37.063500 -119.598252 179 30910ft 429kts
30-Sep-18 17:22 36.946448 -119.597911 185 30907ft 425kts
30-Sep-18 17:23 36.834474 -119.599976 185 30915ft 425kts
30-Sep-18 17:24 36.716767 -119.602031 185 30913ft 425kts
30-Sep-18 17:25 36.598835 -119.604069 185 30913ft 425kts
30-Sep-18 17:26 36.481033 -119.606094 185 30912ft 425kts
30-Sep-18 17:27 36.362710 -119.608116 185 30910ft 425kts
30-Sep-18 17:28 36.245513 -119.610119 185 30910ft 425kts
30-Sep-18 17:29 36.127336 -119.612130 185 30909ft 425kts
30-Sep-18 17:30 36.009723 -119.614125 185 30908ft 425kts
30-Sep-18 17:31 35.896090 -119.631558 194 30902ft 419kts
30-Sep-18 17:32 35.782451 -119.655115 193 30900ft 420kts
30-Sep-18 17:33 35.667420 -119.677577 188 30889ft 423kts
30-Sep-18 17:34 35.549044 -119.665305 179 30352ft 423kts
30-Sep-18 17:35 35.433899 -119.643542 171 28921ft 424kts
30-Sep-18 17:36 35.322300 -119.610276 172 27492ft 398kts
30-Sep-18 17:37 35.217885 -119.571203 155 25705ft 399kts
30-Sep-18 17:38 35.128698 -119.491098 148 23854ft 394kts
30-Sep-18 17:39 35.043502 -119.411092 147 22416ft 385kts
30-Sep-18 17:40 34.964355 -119.344910 156 20956ft 372kts
30-Sep-18 17:41 34.887738 -119.294342 156 18944ft 338kts
30-Sep-18 17:42 34.804310 -119.239047 156 17529ft 333kts
30-Sep-18 17:43 34.725695 -119.187322 155 15796ft 318kts
30-Sep-18 17:44 34.648455 -119.136738 155 14051ft 303kts
30-Sep-18 17:45 34.577366 -119.090528 155 12514ft 284kts
30-Sep-18 17:46 34.511397 -119.040053 146 11246ft 277kts
30-Sep-18 17:47 34.451276 -118.984225 146 10154ft 268kts
30-Sep-18 17:48 34.390872 -118.925241 144 9393ft 280kts
30-Sep-18 17:49 34.333256 -118.864147 140 8257ft 274kts
30-Sep-18 17:50 34.284709 -118.794051 121 6816ft 266kts
30-Sep-18 17:51 34.251089 -118.720563 121 5075ft 235kts
30-Sep-18 17:52 34.221017 -118.654977 121 3993ft 216kts
30-Sep-18 17:53 34.202107 -118.588945 106 3963ft 190kts
30-Sep-18 17:54 34.199968 -118.534247 94 3412ft 146kts
30-Sep-18 17:55 34.200739 -118.486214 93 2776ft 143kts
30-Sep-18 17:56 34.198799 -118.448366 94 2092ft 141kts
30-Sep-18 17:57 34.198275 -118.394958 93 1227ft 137kts
30-Sep-18 17:58 34.197731 -118.356889 91 712ft 31kts
30-Sep-18 17:59 34.197243 -118.354001 99 704ft 0kts
30-Sep-18 18:00 34.196849 -118.351441 181 699ft 2kts
30-Sep-18 18:01 34.196796 -118.351444 181 699ft 0kts

Navigation Log

Ident Type
Flight plan parsing failed, navigation log unavailable